Terminal Aerodrome Forecast
Issued by NWS Milwaukee/Sullivan, WI

Home | Current Version | Previous Version | Text Only | Print | Product List | Glossary On
Versions: 1 2 3 4 5 6 7 8 9 10 11 12 13 14 15 16 17 18 19 20 21 22 23 24 25 26 27 28 29 30 31 32 33 34 35 36 37 38 39 40
000
FTUS43 KMKX 231300 AAB
TAFMSN
TAF AMD
KMSN 231300Z 2313/2412 00000KT P6SM FEW007 BKN015
     FM231500 VRB03KT P6SM SCT025 BKN070
     FM232000 17005KT P6SM VCTS BKN060CB
     FM240600 17006KT 5SM TSRA BR BKN040 OVC090CB
     FM240800 18006KT 3SM +TSRA BR BKN040 OVC090CB
     FM241000 19006KT 3SM TSRA BR BKN040 BKN090CB=

USA.gov is the U.S. government's official web portal to all federal, state and local government web resources and services.